createdAt,value
2017-09-10T00:00:56.733Z,11.74
2017-09-10T00:01:56.727Z,11.74
2017-09-10T00:02:56.721Z,11.72
2017-09-10T00:03:56.712Z,11.72
2017-09-10T00:04:56.714Z,11.74
2017-09-10T00:05:56.703Z,11.70
2017-09-10T00:06:56.696Z,11.79
2017-09-10T00:07:56.688Z,11.70
2017-09-10T00:08:56.682Z,11.70
2017-09-10T00:09:56.673Z,11.69
2017-09-10T00:10:56.666Z,11.67
2017-09-10T00:11:56.658Z,11.64
2017-09-10T00:12:56.647Z,11.66
2017-09-10T00:13:56.639Z,11.67
2017-09-10T00:14:56.632Z,11.66
2017-09-10T00:15:56.628Z,11.74
2017-09-10T00:16:56.622Z,11.77
2017-09-10T00:17:56.611Z,11.85
2017-09-10T00:18:56.604Z,11.84
2017-09-10T00:19:56.598Z,11.93
2017-09-10T00:20:56.593Z,11.93
2017-09-10T00:21:56.586Z,12.01
2017-09-10T00:22:56.578Z,11.97
2017-09-10T00:23:56.569Z,11.94
2017-09-10T00:24:56.563Z,11.94
2017-09-10T00:25:56.557Z,11.96
2017-09-10T00:26:56.549Z,11.97
2017-09-10T00:27:56.541Z,12.07
2017-09-10T00:28:56.531Z,12.04
2017-09-10T00:29:56.521Z,12.07
2017-09-10T00:30:56.514Z,12.07
2017-09-10T00:31:56.505Z,12.03
2017-09-10T00:32:56.503Z,11.90
2017-09-10T00:33:56.497Z,11.87
2017-09-10T00:34:56.490Z,11.87
2017-09-10T00:35:56.479Z,11.75
2017-09-10T00:36:56.469Z,11.90
2017-09-10T00:37:56.463Z,11.78
2017-09-10T00:38:56.453Z,11.72
2017-09-10T00:39:56.446Z,11.64
2017-09-10T00:40:56.439Z,11.57
2017-09-10T00:41:56.432Z,11.57
2017-09-10T00:42:56.427Z,11.53
2017-09-10T00:43:56.415Z,11.54
2017-09-10T00:44:56.414Z,11.56
2017-09-10T00:45:56.406Z,11.46
2017-09-10T00:46:56.398Z,11.53
2017-09-10T00:47:56.394Z,11.41
2017-09-10T00:48:56.383Z,11.28
2017-09-10T00:49:56.376Z,11.39
2017-09-10T00:50:56.368Z,11.30
2017-09-10T00:51:56.360Z,11.35
2017-09-10T00:52:56.349Z,11.35
2017-09-10T00:53:56.341Z,11.28
2017-09-10T00:54:56.335Z,11.21
2017-09-10T00:55:56.327Z,11.31
2017-09-10T00:56:56.319Z,11.28
2017-09-10T00:57:56.312Z,11.27
2017-09-10T00:58:56.304Z,11.31
2017-09-10T00:59:56.297Z,11.23
2017-09-10T01:00:56.294Z,11.31
2017-09-10T01:01:56.285Z,11.36
2017-09-10T01:02:56.283Z,11.31
2017-09-10T01:03:56.270Z,11.31
2017-09-10T01:04:56.262Z,11.39
2017-09-10T01:05:56.255Z,11.27
2017-09-10T01:06:56.249Z,11.41
2017-09-10T01:07:56.241Z,11.48
2017-09-10T01:08:56.229Z,11.53
2017-09-10T01:09:56.220Z,11.53
2017-09-10T01:10:56.214Z,11.56
2017-09-10T01:11:56.206Z,11.56
2017-09-10T01:12:56.199Z,11.63
2017-09-10T01:13:56.191Z,11.59
2017-09-10T01:14:56.184Z,11.63
2017-09-10T01:15:56.176Z,11.59
2017-09-10T01:16:56.173Z,11.54
2017-09-10T01:17:56.165Z,11.53
2017-09-10T01:18:56.158Z,11.49
2017-09-10T01:19:56.149Z,11.54
2017-09-10T01:20:56.141Z,11.51
2017-09-10T01:21:56.134Z,11.46
2017-09-10T01:22:56.127Z,11.57
2017-09-10T01:23:56.118Z,11.56
2017-09-10T01:24:56.108Z,11.62
2017-09-10T01:25:56.100Z,11.64
2017-09-10T01:26:56.092Z,11.63
2017-09-10T01:27:56.085Z,11.67
2017-09-10T01:28:56.078Z,11.67
2017-09-10T01:29:56.069Z,11.66
2017-09-10T01:30:56.063Z,11.79
2017-09-10T01:31:56.053Z,11.67
2017-09-10T01:32:56.052Z,11.74
2017-09-10T01:33:56.044Z,11.82
2017-09-10T01:34:56.036Z,11.81
2017-09-10T01:35:56.027Z,11.85
2017-09-10T01:36:56.016Z,11.77
2017-09-10T01:37:56.008Z,11.82
2017-09-10T01:38:56.002Z,11.77
2017-09-10T01:39:55.992Z,11.85
2017-09-10T01:40:55.989Z,11.82
2017-09-10T01:41:55.982Z,11.82
2017-09-10T01:42:55.974Z,11.81
2017-09-10T01:43:55.967Z,11.84
2017-09-10T01:44:55.960Z,11.82
2017-09-10T01:45:55.952Z,11.77
2017-09-10T01:46:55.945Z,11.84
2017-09-10T01:47:55.936Z,11.85
2017-09-10T01:48:55.923Z,11.81
2017-09-10T01:49:55.916Z,11.81
2017-09-10T01:50:55.910Z,11.85
2017-09-10T01:51:55.900Z,11.88
2017-09-10T01:52:55.894Z,11.85
2017-09-10T01:53:55.887Z,11.81
2017-09-10T01:54:55.879Z,11.81
2017-09-10T01:55:55.871Z,11.77
2017-09-10T01:56:55.867Z,11.75
2017-09-10T01:57:55.860Z,11.74
2017-09-10T01:58:55.853Z,11.74
2017-09-10T01:59:55.842Z,11.77
2017-09-10T02:00:55.861Z,11.60
2017-09-10T02:01:55.829Z,11.63
2017-09-10T02:02:55.821Z,11.64
2017-09-10T02:03:55.814Z,11.57
2017-09-10T02:04:55.801Z,11.44
2017-09-10T02:05:55.793Z,11.46
2017-09-10T02:06:55.787Z,11.56
2017-09-10T02:07:55.779Z,11.48
2017-09-10T02:08:55.771Z,11.38
2017-09-10T02:09:55.762Z,11.28
2017-09-10T02:10:55.756Z,11.38
2017-09-10T02:11:55.747Z,11.20
2017-09-10T02:12:55.744Z,11.17
2017-09-10T02:13:55.736Z,11.19
2017-09-10T02:14:55.730Z,11.19
2017-09-10T02:15:55.721Z,11.11
2017-09-10T02:16:55.714Z,11.06
2017-09-10T02:17:55.708Z,11.11
2017-09-10T02:18:55.699Z,11.08
2017-09-10T02:19:55.691Z,11.05
2017-09-10T02:20:55.679Z,11.06
2017-09-10T02:21:55.671Z,11.03
2017-09-10T02:22:55.664Z,11.06
2017-09-10T02:23:55.655Z,11.06
2017-09-10T02:24:55.649Z,11.03
2017-09-10T02:25:55.640Z,11.09
2017-09-10T02:26:55.634Z,11.06
2017-09-10T02:27:55.624Z,11.05
2017-09-10T02:28:55.623Z,11.02
2017-09-10T02:29:55.614Z,11.09
2017-09-10T02:30:55.606Z,11.19
2017-09-10T02:31:55.599Z,11.09
2017-09-10T02:32:55.592Z,11.20
2017-09-10T02:33:55.584Z,11.13
2017-09-10T02:34:55.575Z,11.28
2017-09-10T02:35:55.567Z,11.21
2017-09-10T02:36:55.556Z,11.23
2017-09-10T02:37:55.549Z,11.20
2017-09-10T02:38:55.541Z,11.11
2017-09-10T02:39:55.573Z,11.09
2017-09-10T02:40:55.525Z,11.21
2017-09-10T02:41:55.517Z,11.19
2017-09-10T02:42:55.511Z,11.19
2017-09-10T02:43:55.501Z,11.16
2017-09-10T02:44:55.498Z,11.09
2017-09-10T02:45:55.492Z,11.09
2017-09-10T02:46:55.483Z,11.05
2017-09-10T02:47:55.475Z,10.99
2017-09-10T02:48:55.469Z,11.02
2017-09-10T02:49:55.460Z,11.08
2017-09-10T02:50:55.454Z,11.03
2017-09-10T02:51:55.444Z,10.98
2017-09-10T02:52:55.434Z,10.90
2017-09-10T02:53:55.425Z,10.94
2017-09-10T02:54:55.418Z,10.87
2017-09-10T02:55:55.409Z,10.84
2017-09-10T02:56:55.401Z,10.87
2017-09-10T02:57:55.393Z,10.87
2017-09-10T02:58:55.386Z,10.80
2017-09-10T02:59:55.378Z,10.93
2017-09-10T03:00:55.375Z,10.81
2017-09-10T03:01:55.368Z,10.80
2017-09-10T03:02:55.360Z,10.83
2017-09-10T03:03:55.351Z,10.75
2017-09-10T03:04:55.344Z,10.83
2017-09-10T03:05:55.336Z,10.83
2017-09-10T03:06:55.328Z,10.83
2017-09-10T03:07:55.320Z,10.87
2017-09-10T03:08:55.309Z,10.94
2017-09-10T03:09:55.300Z,10.99
2017-09-10T03:10:55.294Z,10.99
2017-09-10T03:11:55.283Z,11.05
2017-09-10T03:12:55.276Z,11.13
2017-09-10T03:13:55.269Z,11.20
2017-09-10T03:14:55.262Z,11.12
2017-09-10T03:15:55.253Z,11.20
2017-09-10T03:16:55.250Z,11.09
2017-09-10T03:17:55.243Z,11.12
2017-09-10T03:18:55.235Z,11.17
2017-09-10T03:19:55.225Z,11.28
2017-09-10T03:20:55.218Z,11.30
2017-09-10T03:21:55.214Z,11.33
2017-09-10T03:22:55.203Z,11.30
2017-09-10T03:23:55.195Z,11.36
2017-09-10T03:24:55.183Z,11.38
2017-09-10T03:25:55.176Z,11.42
2017-09-10T03:26:55.168Z,11.33
2017-09-10T03:27:55.159Z,11.30
2017-09-10T03:28:55.152Z,11.24
2017-09-10T03:29:55.143Z,11.28
2017-09-10T03:30:55.139Z,11.33
2017-09-10T03:31:55.128Z,11.30
2017-09-10T03:32:55.126Z,11.31
2017-09-10T03:33:55.116Z,11.33
2017-09-10T03:34:55.109Z,11.44
2017-09-10T03:35:55.101Z,11.44
2017-09-10T03:36:55.094Z,11.30
2017-09-10T03:37:55.086Z,11.30
2017-09-10T03:38:55.077Z,11.38
2017-09-10T03:39:55.070Z,11.35
2017-09-10T03:40:55.057Z,11.24
2017-09-10T03:41:55.051Z,11.24
2017-09-10T03:42:55.042Z,11.17
2017-09-10T03:43:55.034Z,11.33
2017-09-10T03:44:55.032Z,11.26
2017-09-10T03:45:55.049Z,11.28
2017-09-10T03:46:55.015Z,11.19
2017-09-10T03:47:55.007Z,11.27
2017-09-10T03:48:54.996Z,11.19
2017-09-10T03:49:54.988Z,11.21
2017-09-10T03:50:54.980Z,11.19
2017-09-10T03:51:54.972Z,11.16
2017-09-10T03:52:54.966Z,11.19
2017-09-10T03:53:54.957Z,11.27
2017-09-10T03:54:54.950Z,11.27
2017-09-10T03:55:54.941Z,11.33
2017-09-10T03:56:54.938Z,11.30
2017-09-10T03:57:54.933Z,11.28
2017-09-10T03:58:54.922Z,11.33
2017-09-10T03:59:54.915Z,11.36
2017-09-10T04:00:54.907Z,11.33
2017-09-10T04:01:54.898Z,11.27
2017-09-10T04:02:54.894Z,11.36
2017-09-10T04:03:54.882Z,11.39
2017-09-10T04:04:54.871Z,11.35
2017-09-10T04:05:54.862Z,11.39
2017-09-10T04:06:54.856Z,11.31
2017-09-10T04:07:54.846Z,11.31
2017-09-10T04:08:54.838Z,11.35
2017-09-10T04:09:54.833Z,11.38
2017-09-10T04:10:54.824Z,11.33
2017-09-10T04:11:54.816Z,11.46
2017-09-10T04:12:54.814Z,11.48
2017-09-10T04:13:54.805Z,11.46
2017-09-10T04:14:54.798Z,11.51
2017-09-10T04:15:54.789Z,11.56
2017-09-10T04:16:54.781Z,11.54
2017-09-10T04:17:54.773Z,11.60
2017-09-10T04:18:54.765Z,11.59
2017-09-10T04:19:54.759Z,11.67
2017-09-10T04:20:54.747Z,11.70
2017-09-10T04:21:54.740Z,11.62
2017-09-10T04:22:54.736Z,11.64
2017-09-10T04:23:54.723Z,11.62
2017-09-10T04:24:54.716Z,11.62
2017-09-10T04:25:54.708Z,11.51
2017-09-10T04:26:54.700Z,11.57
2017-09-10T04:27:54.693Z,11.62
2017-09-10T04:28:54.689Z,11.53
2017-09-10T04:29:54.680Z,11.54
2017-09-10T04:30:54.674Z,11.57
2017-09-10T04:31:54.666Z,11.53
2017-09-10T04:32:54.658Z,11.53
2017-09-10T04:33:54.650Z,11.62
2017-09-10T04:34:54.643Z,11.62
2017-09-10T04:35:54.635Z,11.59
2017-09-10T04:36:54.623Z,11.59
2017-09-10T04:37:54.615Z,11.59
2017-09-10T04:38:54.609Z,11.67
2017-09-10T04:39:54.600Z,11.67
2017-09-10T04:40:54.593Z,11.70
2017-09-10T04:41:54.584Z,11.72
2017-09-10T04:42:54.576Z,11.70
2017-09-10T04:43:54.568Z,11.67
2017-09-10T04:44:54.564Z,11.64
2017-09-10T04:45:54.556Z,11.67
2017-09-10T04:46:54.555Z,11.67
2017-09-10T04:47:54.542Z,11.66
2017-09-10T04:48:54.530Z,11.77
2017-09-10T04:49:54.523Z,11.79
2017-09-10T04:50:54.514Z,11.75
2017-09-10T04:51:54.507Z,11.82
2017-09-10T04:52:54.503Z,11.75
2017-09-10T04:53:54.496Z,11.78
2017-09-10T04:54:54.489Z,11.81
2017-09-10T04:55:54.479Z,11.82
2017-09-10T04:56:54.472Z,11.81
2017-09-10T04:57:54.465Z,11.93
2017-09-10T04:58:54.458Z,11.94
2017-09-10T04:59:54.449Z,11.79
2017-09-10T05:00:54.441Z,11.82
2017-09-10T05:01:54.429Z,11.79
2017-09-10T05:02:54.422Z,11.93
2017-09-10T05:03:54.420Z,11.87
2017-09-10T05:04:54.407Z,11.90
2017-09-10T05:05:54.400Z,11.90
2017-09-10T05:06:54.393Z,11.85
2017-09-10T05:07:54.382Z,11.85
2017-09-10T05:08:54.379Z,11.90
2017-09-10T05:09:54.372Z,11.90
2017-09-10T05:10:54.364Z,11.94
2017-09-10T05:11:54.355Z,11.94
2017-09-10T05:12:54.349Z,11.96
2017-09-10T05:13:54.341Z,11.98
2017-09-10T05:14:54.333Z,11.94
2017-09-10T05:15:54.324Z,11.98
2017-09-10T05:16:54.312Z,11.96
2017-09-10T05:17:54.305Z,11.93
2017-09-10T05:18:54.297Z,11.94
2017-09-10T05:19:54.290Z,11.94
2017-09-10T05:20:54.283Z,11.97
2017-09-10T05:21:54.273Z,12.08
2017-09-10T05:22:54.269Z,12.00
2017-09-10T05:23:54.259Z,12.12
2017-09-10T05:24:54.255Z,12.03
2017-09-10T05:25:54.248Z,12.08
2017-09-10T05:26:54.241Z,12.04
2017-09-10T05:27:54.236Z,12.00
2017-09-10T05:28:54.225Z,12.05
2017-09-10T05:29:54.218Z,12.11
2017-09-10T05:30:54.209Z,12.21
2017-09-10T05:31:54.202Z,12.25
2017-09-10T05:32:54.190Z,12.26
2017-09-10T05:33:54.183Z,12.51
2017-09-10T05:34:54.176Z,12.74
2017-09-10T05:35:54.169Z,13.14
2017-09-10T05:36:54.161Z,13.50
2017-09-10T05:37:54.154Z,13.96
2017-09-10T05:38:54.146Z,14.27
2017-09-10T05:39:54.139Z,14.39
2017-09-10T05:40:54.136Z,14.69
2017-09-10T05:41:54.130Z,14.95
2017-09-10T05:42:54.123Z,15.20
2017-09-10T05:43:54.115Z,15.04
2017-09-10T05:44:54.109Z,15.40
2017-09-10T05:45:54.104Z,15.60
2017-09-10T05:46:54.097Z,15.93
2017-09-10T05:47:54.090Z,16.16
2017-09-10T05:48:54.080Z,16.37
2017-09-10T05:49:54.076Z,16.10
2017-09-10T05:50:54.073Z,16.40
2017-09-10T05:51:54.066Z,16.77
2017-09-10T05:52:54.061Z,17.10
2017-09-10T05:53:54.056Z,17.33
2017-09-10T05:54:54.058Z,17.55
2017-09-10T05:55:54.045Z,17.91
2017-09-10T05:56:54.036Z,17.87
2017-09-10T05:57:54.031Z,18.14
2017-09-10T05:58:54.027Z,18.26
2017-09-10T05:59:54.021Z,17.53
2017-09-10T06:00:54.017Z,17.84
2017-09-10T06:01:54.012Z,18.05
2017-09-10T06:02:54.009Z,18.34
2017-09-10T06:03:54.004Z,18.64
2017-09-10T06:04:54.004Z,18.94
2017-09-10T06:05:53.998Z,18.72
2017-09-10T06:06:53.997Z,18.65
2017-09-10T06:07:53.991Z,18.99
2017-09-10T06:08:53.989Z,19.21
2017-09-10T06:09:53.986Z,19.43
2017-09-10T06:10:53.982Z,19.94
2017-09-10T06:11:53.979Z,20.22
2017-09-10T06:12:53.975Z,20.37
2017-09-10T06:13:53.969Z,20.26
2017-09-10T06:14:53.966Z,19.80
2017-09-10T06:15:53.963Z,20.17
2017-09-10T06:16:53.960Z,20.64
2017-09-10T06:17:53.957Z,20.64
2017-09-10T06:18:53.956Z,20.48
2017-09-10T06:19:53.955Z,21.18
2017-09-10T06:20:53.956Z,20.81
2017-09-10T06:21:53.954Z,20.48
2017-09-10T06:22:53.952Z,21.01
2017-09-10T06:23:53.952Z,20.73
2017-09-10T06:24:53.950Z,21.05
2017-09-10T06:25:53.949Z,21.05
2017-09-10T06:26:53.947Z,21.15
2017-09-10T06:27:53.945Z,21.58
2017-09-10T06:28:53.941Z,20.82
2017-09-10T06:29:53.941Z,21.98
2017-09-10T06:30:53.940Z,22.45
2017-09-10T06:31:53.940Z,22.35
2017-09-10T06:32:53.939Z,22.52
2017-09-10T06:33:53.940Z,21.89
2017-09-10T06:34:53.940Z,22.12
2017-09-10T06:35:53.939Z,20.68
2017-09-10T06:36:53.942Z,20.31
2017-09-10T06:37:53.944Z,20.94
2017-09-10T06:38:53.945Z,20.46
2017-09-10T06:39:53.944Z,20.68
2017-09-10T06:40:53.945Z,20.51
2017-09-10T06:41:53.947Z,19.27
2017-09-10T06:42:53.947Z,19.72
2017-09-10T06:43:53.948Z,19.70
2017-09-10T06:44:53.945Z,19.30
2017-09-10T06:45:53.946Z,19.05
2017-09-10T06:46:53.951Z,19.39
2017-09-10T06:47:53.949Z,18.79
2017-09-10T06:48:53.951Z,19.50
2017-09-10T06:49:53.954Z,19.24
2017-09-10T06:50:53.954Z,20.44
2017-09-10T06:51:53.956Z,20.69
2017-09-10T06:52:53.962Z,20.83
2017-09-10T06:53:53.962Z,21.09
2017-09-10T06:54:53.965Z,21.71
2017-09-10T06:55:53.967Z,21.49
2017-09-10T06:56:53.964Z,21.53
2017-09-10T06:57:53.967Z,20.94
2017-09-10T06:58:53.968Z,20.48
2017-09-10T06:59:53.971Z,21.21
2017-09-10T07:00:53.978Z,21.28
2017-09-10T07:01:53.980Z,21.06
2017-09-10T07:02:53.984Z,21.66
2017-09-10T07:03:53.985Z,20.66
2017-09-10T07:04:53.988Z,21.83
2017-09-10T07:05:53.992Z,21.83
2017-09-10T07:06:53.994Z,21.30
2017-09-10T07:07:53.997Z,20.72
2017-09-10T07:08:53.997Z,20.25
2017-09-10T07:09:54.000Z,20.50
2017-09-10T07:10:54.005Z,20.08
2017-09-10T07:11:54.008Z,20.91
2017-09-10T07:12:54.011Z,21.21
2017-09-10T07:13:54.014Z,20.31
2017-09-10T07:14:54.019Z,20.61
2017-09-10T07:15:54.021Z,20.42
2017-09-10T07:16:54.029Z,20.20
2017-09-10T07:17:54.033Z,20.37
2017-09-10T07:18:54.037Z,20.46
2017-09-10T07:19:54.039Z,21.86
2017-09-10T07:20:54.045Z,22.24
2017-09-10T07:21:54.049Z,22.59
2017-09-10T07:22:54.055Z,22.89
2017-09-10T07:23:54.057Z,23.45
2017-09-10T07:24:54.058Z,23.90
2017-09-10T07:25:54.063Z,24.46
2017-09-10T07:26:54.068Z,23.15
2017-09-10T07:27:54.072Z,22.97
2017-09-10T07:28:54.077Z,22.49
2017-09-10T07:29:54.082Z,21.37
2017-09-10T07:30:54.088Z,22.23
2017-09-10T07:31:54.092Z,21.68
2017-09-10T07:32:54.102Z,22.08
2017-09-10T07:33:54.108Z,23.67
2017-09-10T07:34:54.112Z,23.39
2017-09-10T07:35:54.118Z,22.20
2017-09-10T07:36:54.124Z,23.57
2017-09-10T07:37:54.129Z,22.42
2017-09-10T07:38:54.135Z,21.85
2017-09-10T07:39:54.139Z,22.64
2017-09-10T07:40:54.147Z,22.94
2017-09-10T07:41:54.150Z,21.77
2017-09-10T07:42:54.155Z,21.67
2017-09-10T07:43:54.160Z,22.41
2017-09-10T07:44:54.169Z,21.93
2017-09-10T07:45:54.172Z,21.05
2017-09-10T07:46:54.179Z,21.85
2017-09-10T07:47:54.186Z,23.16
2017-09-10T07:48:54.197Z,24.61
2017-09-10T07:49:54.202Z,24.46
2017-09-10T07:50:54.210Z,23.53
2017-09-10T07:51:54.218Z,24.30
2017-09-10T07:52:54.222Z,24.93
2017-09-10T07:53:54.235Z,25.27
2017-09-10T07:54:54.238Z,24.97
2017-09-10T07:55:54.249Z,24.00
2017-09-10T07:56:54.249Z,24.49
2017-09-10T07:57:54.258Z,24.60
2017-09-10T07:58:54.261Z,23.78
2017-09-10T07:59:54.268Z,24.14
2017-09-10T08:00:54.288Z,23.49
2017-09-10T08:01:54.298Z,22.89
2017-09-10T08:02:54.296Z,23.44
2017-09-10T08:03:54.566Z,23.56
2017-09-10T08:04:54.381Z,23.39
2017-09-10T08:05:54.450Z,24.14
2017-09-10T08:06:54.465Z,24.15
2017-09-10T08:07:54.347Z,24.86
2017-09-10T08:08:54.350Z,25.14
2017-09-10T08:09:54.349Z,24.93
2017-09-10T08:10:54.360Z,25.63
2017-09-10T08:11:54.366Z,26.27
2017-09-10T08:12:54.378Z,25.86
2017-09-10T08:13:54.387Z,25.60
2017-09-10T08:14:54.397Z,25.89
2017-09-10T08:15:54.407Z,26.01
2017-09-10T08:16:54.415Z,24.92
2017-09-10T08:17:54.422Z,24.51
2017-09-10T08:18:54.431Z,24.39
2017-09-10T08:19:54.441Z,22.39
2017-09-10T08:20:54.447Z,23.03
2017-09-10T08:21:54.457Z,23.97
2017-09-10T08:22:54.466Z,24.89
2017-09-10T08:23:54.475Z,25.12
2017-09-10T08:24:54.485Z,25.34
2017-09-10T08:25:54.494Z,25.54
2017-09-10T08:26:54.505Z,24.61
2017-09-10T08:27:54.516Z,26.01
2017-09-10T08:28:54.526Z,24.86
2017-09-10T08:29:54.536Z,25.64
2017-09-10T08:30:54.546Z,27.25
2017-09-10T08:31:54.557Z,27.34
2017-09-10T08:32:54.566Z,26.50
2017-09-10T08:33:54.577Z,27.06
2017-09-10T08:34:54.588Z,27.95
2017-09-10T08:35:54.596Z,26.86
2017-09-10T08:36:54.603Z,27.72
2017-09-10T08:37:54.617Z,27.52
2017-09-10T08:38:54.624Z,25.82
2017-09-10T08:39:54.637Z,27.06
2017-09-10T08:40:54.646Z,25.56
2017-09-10T08:41:54.655Z,27.28
2017-09-10T08:42:54.669Z,26.87
2017-09-10T08:43:54.679Z,27.55
2017-09-10T08:44:54.693Z,27.27
2017-09-10T08:45:54.706Z,27.95
2017-09-10T08:46:54.716Z,27.52
2017-09-10T08:47:54.729Z,28.54
2017-09-10T08:48:54.741Z,27.80
2017-09-10T08:49:54.752Z,28.35
2017-09-10T08:50:54.766Z,28.05
2017-09-10T08:51:54.775Z,27.98
2017-09-10T08:52:54.783Z,29.25
2017-09-10T08:53:54.797Z,29.52
2017-09-10T08:54:54.807Z,30.13
2017-09-10T08:55:54.819Z,29.42
2017-09-10T08:56:54.833Z,31.09
2017-09-10T08:57:54.844Z,31.67
2017-09-10T08:58:54.857Z,30.37
2017-09-10T08:59:54.869Z,28.77
2017-09-10T09:00:54.886Z,28.33
2017-09-10T09:01:54.900Z,27.87
2017-09-10T09:02:54.913Z,27.06
2017-09-10T09:03:54.924Z,25.41
2017-09-10T09:04:54.933Z,26.98
2017-09-10T09:05:54.947Z,28.74
2017-09-10T09:06:54.959Z,28.85
2017-09-10T09:07:54.969Z,30.37
2017-09-10T09:08:54.988Z,29.45
2017-09-10T09:09:55.002Z,29.57
2017-09-10T09:10:55.012Z,29.23
2017-09-10T09:11:55.024Z,26.01
2017-09-10T09:12:55.038Z,24.00
2017-09-10T09:13:55.048Z,23.56
2017-09-10T09:14:55.062Z,24.00
2017-09-10T09:15:55.073Z,24.44
2017-09-10T09:16:55.091Z,26.39
2017-09-10T09:17:55.094Z,26.21
2017-09-10T09:18:55.104Z,25.14
2017-09-10T09:19:55.114Z,24.83
2017-09-10T09:20:55.124Z,26.36
2017-09-10T09:21:55.136Z,26.27
2017-09-10T09:22:55.148Z,24.12
2017-09-10T09:23:55.157Z,22.49
2017-09-10T09:24:55.172Z,22.05
2017-09-10T09:25:55.182Z,24.92
2017-09-10T09:26:55.200Z,22.89
2017-09-10T09:27:55.201Z,24.46
2017-09-10T09:28:55.211Z,26.44
2017-09-10T09:29:55.221Z,26.97
2017-09-10T09:30:55.230Z,26.96
2017-09-10T09:31:55.240Z,28.13
2017-09-10T09:32:55.249Z,27.08
2017-09-10T09:33:55.256Z,25.90
2017-09-10T09:34:55.265Z,25.82
2017-09-10T09:35:55.273Z,25.29
2017-09-10T09:36:55.284Z,27.35
2017-09-10T09:37:55.295Z,27.87
2017-09-10T09:38:55.306Z,24.67
2017-09-10T09:39:55.316Z,23.39
2017-09-10T09:40:55.331Z,23.26
2017-09-10T09:41:55.342Z,22.19
2017-09-10T09:42:55.353Z,21.83
2017-09-10T09:43:55.361Z,21.90
2017-09-10T09:44:55.372Z,22.20
2017-09-10T09:45:55.382Z,21.93
2017-09-10T09:46:55.391Z,22.56
2017-09-10T09:47:55.423Z,22.29
2017-09-10T09:48:55.405Z,24.49
2017-09-10T09:49:55.413Z,27.08
2017-09-10T09:50:55.425Z,27.53
2017-09-10T09:51:55.429Z,28.43
2017-09-10T09:52:55.437Z,28.18
2017-09-10T09:53:55.451Z,25.93
2017-09-10T09:54:55.453Z,27.35
2017-09-10T09:55:55.461Z,28.48
2017-09-10T09:56:55.479Z,27.03
2017-09-10T09:57:55.483Z,26.47
2017-09-10T09:58:55.490Z,25.86
2017-09-10T09:59:55.500Z,25.75
2017-09-10T10:00:55.509Z,26.06
2017-09-10T10:01:55.515Z,26.84
2017-09-10T10:02:55.525Z,27.95
2017-09-10T10:03:55.531Z,29.07
2017-09-10T10:04:55.536Z,30.25
2017-09-10T10:05:55.547Z,30.19
2017-09-10T10:06:55.553Z,30.37
2017-09-10T10:07:55.562Z,30.76
2017-09-10T10:08:55.575Z,30.25
2017-09-10T10:09:55.585Z,29.05
2017-09-10T10:10:55.593Z,27.50
2017-09-10T10:11:55.602Z,26.21
2017-09-10T10:12:55.608Z,24.52
2017-09-10T10:13:55.619Z,23.29
2017-09-10T10:14:55.630Z,23.90
2017-09-10T10:15:55.641Z,26.41
2017-09-10T10:16:55.650Z,26.56
2017-09-10T10:17:55.659Z,27.45
2017-09-10T10:18:55.670Z,29.20
2017-09-10T10:19:55.680Z,29.42
2017-09-10T10:20:55.693Z,29.91
2017-09-10T10:21:55.705Z,30.04
2017-09-10T10:22:55.717Z,28.87
2017-09-10T10:23:55.727Z,27.35
2017-09-10T10:24:55.744Z,28.73
2017-09-10T10:25:55.750Z,28.82
2017-09-10T10:26:55.760Z,27.95
2017-09-10T10:27:55.772Z,26.94
2017-09-10T10:28:55.780Z,27.01
2017-09-10T10:29:55.790Z,26.01
2017-09-10T10:30:55.804Z,26.32
2017-09-10T10:31:55.815Z,26.21
2017-09-10T10:32:55.827Z,26.66
2017-09-10T10:33:55.839Z,27.18
2017-09-10T10:34:55.852Z,26.61
2017-09-10T10:35:55.864Z,28.01
2017-09-10T10:36:55.879Z,28.51
2017-09-10T10:37:55.891Z,29.12
2017-09-10T10:38:55.904Z,29.58
2017-09-10T10:39:55.916Z,29.00
2017-09-10T10:40:55.928Z,29.73
2017-09-10T10:41:55.941Z,30.60
2017-09-10T10:42:55.955Z,28.70
2017-09-10T10:43:55.966Z,27.53
2017-09-10T10:44:55.975Z,25.85
2017-09-10T10:45:55.988Z,23.44
2017-09-10T10:46:56.004Z,23.14
2017-09-10T10:47:56.012Z,22.99
2017-09-10T10:48:56.024Z,22.61
2017-09-10T10:49:56.038Z,23.81
2017-09-10T10:50:56.047Z,24.56
2017-09-10T10:51:56.058Z,25.01
2017-09-10T10:52:56.074Z,25.94
2017-09-10T10:53:56.085Z,27.48
2017-09-10T10:54:56.096Z,28.46
2017-09-10T10:55:56.107Z,29.33
2017-09-10T10:56:56.119Z,29.74
2017-09-10T10:57:56.128Z,29.36
2017-09-10T10:58:56.141Z,28.52
2017-09-10T10:59:56.150Z,27.80
2017-09-10T11:00:56.158Z,27.38
2017-09-10T11:01:56.169Z,25.91
2017-09-10T11:02:56.180Z,25.26
2017-09-10T11:03:56.190Z,24.87
2017-09-10T11:04:56.200Z,23.82
2017-09-10T11:05:56.211Z,23.82
2017-09-10T11:06:56.221Z,24.16
2017-09-10T11:07:56.230Z,24.45
2017-09-10T11:08:56.245Z,24.66
2017-09-10T11:09:56.254Z,24.89
2017-09-10T11:10:56.262Z,26.76
2017-09-10T11:11:56.272Z,27.23
2017-09-10T11:12:56.281Z,26.04
2017-09-10T11:13:56.288Z,25.75
2017-09-10T11:14:56.297Z,25.51
2017-09-10T11:15:56.303Z,25.45
2017-09-10T11:16:56.309Z,24.75
2017-09-10T11:17:56.316Z,24.26
2017-09-10T11:18:56.324Z,24.02
2017-09-10T11:19:56.331Z,24.16
2017-09-10T11:20:56.339Z,24.27
2017-09-10T11:21:56.345Z,25.36
2017-09-10T11:22:56.353Z,25.97
2017-09-10T11:23:56.360Z,26.09
2017-09-10T11:24:56.370Z,25.69
2017-09-10T11:25:56.376Z,25.51
2017-09-10T11:26:56.382Z,24.90
2017-09-10T11:27:56.388Z,24.68
2017-09-10T11:28:56.394Z,24.60
2017-09-10T11:29:56.402Z,24.26
2017-09-10T11:30:56.406Z,23.74
2017-09-10T11:31:56.410Z,23.53
2017-09-10T11:32:56.413Z,23.57
2017-09-10T11:33:56.416Z,23.52
2017-09-10T11:34:56.422Z,23.72
2017-09-10T11:35:56.427Z,23.47
2017-09-10T11:36:56.432Z,23.50
2017-09-10T11:37:56.438Z,23.31
2017-09-10T11:38:56.441Z,23.14
2017-09-10T11:39:56.445Z,23.19
2017-09-10T11:40:56.455Z,23.47
2017-09-10T11:41:56.459Z,23.45
2017-09-10T11:42:56.464Z,23.50
2017-09-10T11:43:56.466Z,23.25
2017-09-10T11:44:56.468Z,23.00
2017-09-10T11:45:56.474Z,23.14
2017-09-10T11:46:56.478Z,23.06
2017-09-10T11:47:56.481Z,23.15
2017-09-10T11:48:56.480Z,23.14
2017-09-10T11:49:56.484Z,23.37
2017-09-10T11:50:56.496Z,22.93
2017-09-10T11:51:56.488Z,23.00
2017-09-10T11:52:56.497Z,22.60
2017-09-10T11:53:56.496Z,22.57
2017-09-10T11:54:56.498Z,22.66
2017-09-10T11:55:56.501Z,22.70
2017-09-10T11:56:56.524Z,22.69
2017-09-10T11:57:56.512Z,22.31
2017-09-10T11:58:56.514Z,21.61
2017-09-10T11:59:56.515Z,21.28
2017-09-10T12:00:56.525Z,21.06
2017-09-10T12:01:56.520Z,21.31
2017-09-10T12:02:56.525Z,21.58
2017-09-10T12:03:56.525Z,21.56
2017-09-10T12:04:56.523Z,21.85
2017-09-10T12:05:56.525Z,21.89
2017-09-10T12:06:56.528Z,22.08
2017-09-10T12:07:56.529Z,22.12
2017-09-10T12:08:56.531Z,21.89
2017-09-10T12:09:56.534Z,21.67
2017-09-10T12:10:56.535Z,21.64
2017-09-10T12:11:56.536Z,21.81
2017-09-10T12:12:56.542Z,21.90
2017-09-10T12:13:56.544Z,22.23
2017-09-10T12:14:56.546Z,22.41
2017-09-10T12:15:56.546Z,22.14
2017-09-10T12:16:56.544Z,22.26
2017-09-10T12:17:56.544Z,22.26
2017-09-10T12:18:56.547Z,22.66
2017-09-10T12:19:56.547Z,22.48
2017-09-10T12:20:56.553Z,22.44
2017-09-10T12:21:56.557Z,22.19
2017-09-10T12:22:56.557Z,22.42
2017-09-10T12:23:56.558Z,22.06
2017-09-10T12:24:56.559Z,22.15
2017-09-10T12:25:56.560Z,22.24
2017-09-10T12:26:56.563Z,22.24
2017-09-10T12:27:56.563Z,22.41
2017-09-10T12:28:56.560Z,22.56
2017-09-10T12:29:56.563Z,22.60
2017-09-10T12:30:56.564Z,22.46
2017-09-10T12:31:56.564Z,22.61
2017-09-10T12:32:56.566Z,22.72
2017-09-10T12:33:56.570Z,22.36
2017-09-10T12:34:56.567Z,22.12
2017-09-10T12:35:56.575Z,22.12
2017-09-10T12:36:56.576Z,21.63
2017-09-10T12:37:56.577Z,21.55
2017-09-10T12:38:56.577Z,21.48
2017-09-10T12:39:56.583Z,21.53
2017-09-10T12:40:56.583Z,21.56
2017-09-10T12:41:56.581Z,21.68
2017-09-10T12:42:56.582Z,21.66
2017-09-10T12:43:56.585Z,21.83
2017-09-10T12:44:56.579Z,21.68
2017-09-10T12:45:56.581Z,21.90
2017-09-10T12:46:56.586Z,21.96
2017-09-10T12:47:56.582Z,21.96
2017-09-10T12:48:56.584Z,22.01
2017-09-10T12:49:56.586Z,21.96
2017-09-10T12:50:56.586Z,22.24
2017-09-10T12:51:56.587Z,22.48
2017-09-10T12:52:56.592Z,22.36